sensor_id;sensor_type;location;lat;lon;timestamp;P1;durP1;ratioP1;P2;durP2;ratioP2
26908;SDS011;14477;51.038;4.588;2023-04-29T00:01:57;15.63;;;7.40;;
26908;SDS011;14477;51.038;4.588;2023-04-29T00:04:24;14.70;;;7.53;;
26908;SDS011;14477;51.038;4.588;2023-04-29T00:06:50;13.75;;;6.82;;
26908;SDS011;14477;51.038;4.588;2023-04-29T00:09:16;16.27;;;7.80;;
26908;SDS011;14477;51.038;4.588;2023-04-29T00:11:42;16.02;;;7.90;;
26908;SDS011;14477;51.038;4.588;2023-04-29T00:14:07;14.95;;;7.65;;
26908;SDS011;14477;51.038;4.588;2023-04-29T00:16:33;14.63;;;7.60;;
26908;SDS011;14477;51.038;4.588;2023-04-29T00:18:59;16.95;;;8.05;;
26908;SDS011;14477;51.038;4.588;2023-04-29T00:21:26;17.40;;;7.95;;
26908;SDS011;14477;51.038;4.588;2023-04-29T00:23:52;18.03;;;7.57;;
26908;SDS011;14477;51.038;4.588;2023-04-29T00:26:18;15.13;;;7.85;;
26908;SDS011;14477;51.038;4.588;2023-04-29T00:28:43;17.85;;;8.32;;
26908;SDS011;14477;51.038;4.588;2023-04-29T00:31:09;16.47;;;8.27;;
26908;SDS011;14477;51.038;4.588;2023-04-29T00:33:35;17.83;;;8.50;;
26908;SDS011;14477;51.038;4.588;2023-04-29T00:36:01;14.77;;;7.50;;
26908;SDS011;14477;51.038;4.588;2023-04-29T00:38:27;17.77;;;8.30;;
26908;SDS011;14477;51.038;4.588;2023-04-29T00:40:53;15.93;;;7.88;;
26908;SDS011;14477;51.038;4.588;2023-04-29T00:43:20;16.77;;;8.50;;
26908;SDS011;14477;51.038;4.588;2023-04-29T00:45:45;15.80;;;7.63;;
26908;SDS011;14477;51.038;4.588;2023-04-29T00:48:11;19.45;;;8.07;;
26908;SDS011;14477;51.038;4.588;2023-04-29T00:50:39;15.48;;;7.60;;
26908;SDS011;14477;51.038;4.588;2023-04-29T00:53:06;16.73;;;7.07;;
26908;SDS011;14477;51.038;4.588;2023-04-29T00:55:33;14.02;;;7.38;;
26908;SDS011;14477;51.038;4.588;2023-04-29T00:58:01;15.00;;;7.15;;
26908;SDS011;14477;51.038;4.588;2023-04-29T01:00:28;15.45;;;7.65;;
26908;SDS011;14477;51.038;4.588;2023-04-29T01:02:55;14.85;;;7.13;;
26908;SDS011;14477;51.038;4.588;2023-04-29T01:05:24;15.13;;;7.67;;
26908;SDS011;14477;51.038;4.588;2023-04-29T01:11:07;13.55;;;6.68;;
26908;SDS011;14477;51.038;4.588;2023-04-29T01:13:52;14.95;;;7.03;;
26908;SDS011;14477;51.038;4.588;2023-04-29T01:16:29;15.35;;;7.75;;
26908;SDS011;14477;51.038;4.588;2023-04-29T01:18:58;17.40;;;7.70;;
26908;SDS011;14477;51.038;4.588;2023-04-29T01:21:27;13.40;;;6.97;;
26908;SDS011;14477;51.038;4.588;2023-04-29T01:23:56;15.00;;;7.25;;
26908;SDS011;14477;51.038;4.588;2023-04-29T01:26:22;13.35;;;6.55;;
26908;SDS011;14477;51.038;4.588;2023-04-29T01:29:01;16.95;;;8.00;;
26908;SDS011;14477;51.038;4.588;2023-04-29T01:32:07;12.60;;;5.63;;
26908;SDS011;14477;51.038;4.588;2023-04-29T01:34:43;9.60;;;5.72;;
26908;SDS011;14477;51.038;4.588;2023-04-29T01:37:21;10.38;;;6.10;;
26908;SDS011;14477;51.038;4.588;2023-04-29T01:40:17;10.40;;;5.75;;
26908;SDS011;14477;51.038;4.588;2023-04-29T01:45:16;11.43;;;5.73;;
26908;SDS011;14477;51.038;4.588;2023-04-29T01:47:43;11.90;;;6.05;;
26908;SDS011;14477;51.038;4.588;2023-04-29T01:50:10;10.15;;;5.97;;
26908;SDS011;14477;51.038;4.588;2023-04-29T01:52:36;11.45;;;5.93;;
26908;SDS011;14477;51.038;4.588;2023-04-29T01:55:02;10.60;;;5.80;;
26908;SDS011;14477;51.038;4.588;2023-04-29T01:57:29;11.30;;;5.95;;
26908;SDS011;14477;51.038;4.588;2023-04-29T01:59:55;11.43;;;6.10;;
26908;SDS011;14477;51.038;4.588;2023-04-29T02:02:21;12.00;;;6.38;;
26908;SDS011;14477;51.038;4.588;2023-04-29T02:04:47;10.53;;;6.17;;
26908;SDS011;14477;51.038;4.588;2023-04-29T02:07:15;9.45;;;5.90;;
26908;SDS011;14477;51.038;4.588;2023-04-29T02:09:41;10.20;;;6.45;;
26908;SDS011;14477;51.038;4.588;2023-04-29T02:12:06;10.43;;;5.80;;
26908;SDS011;14477;51.038;4.588;2023-04-29T02:14:32;9.63;;;6.37;;
26908;SDS011;14477;51.038;4.588;2023-04-29T02:16:58;10.07;;;5.97;;
26908;SDS011;14477;51.038;4.588;2023-04-29T02:19:24;10.45;;;6.60;;
26908;SDS011;14477;51.038;4.588;2023-04-29T02:21:50;9.33;;;6.00;;
26908;SDS011;14477;51.038;4.588;2023-04-29T02:24:16;9.60;;;6.18;;
26908;SDS011;14477;51.038;4.588;2023-04-29T02:26:42;10.40;;;6.63;;
26908;SDS011;14477;51.038;4.588;2023-04-29T02:29:08;9.13;;;6.17;;
26908;SDS011;14477;51.038;4.588;2023-04-29T02:31:34;10.98;;;6.18;;
26908;SDS011;14477;51.038;4.588;2023-04-29T02:34:00;10.35;;;6.65;;
26908;SDS011;14477;51.038;4.588;2023-04-29T02:36:26;10.23;;;6.10;;
26908;SDS011;14477;51.038;4.588;2023-04-29T02:38:52;10.80;;;6.22;;
26908;SDS011;14477;51.038;4.588;2023-04-29T02:41:20;10.40;;;6.63;;
26908;SDS011;14477;51.038;4.588;2023-04-29T02:43:46;11.48;;;6.43;;
26908;SDS011;14477;51.038;4.588;2023-04-29T02:46:13;11.23;;;6.57;;
26908;SDS011;14477;51.038;4.588;2023-04-29T02:48:39;11.90;;;6.60;;
26908;SDS011;14477;51.038;4.588;2023-04-29T02:51:05;10.20;;;6.43;;
26908;SDS011;14477;51.038;4.588;2023-04-29T02:53:31;9.75;;;5.65;;
26908;SDS011;14477;51.038;4.588;2023-04-29T02:55:57;10.43;;;6.40;;
26908;SDS011;14477;51.038;4.588;2023-04-29T02:58:22;9.27;;;5.82;;
26908;SDS011;14477;51.038;4.588;2023-04-29T03:00:48;10.83;;;6.00;;
26908;SDS011;14477;51.038;4.588;2023-04-29T03:03:14;11.15;;;6.00;;
26908;SDS011;14477;51.038;4.588;2023-04-29T03:05:41;9.27;;;5.35;;
26908;SDS011;14477;51.038;4.588;2023-04-29T03:08:07;8.65;;;5.13;;
26908;SDS011;14477;51.038;4.588;2023-04-29T03:10:34;9.98;;;5.40;;
26908;SDS011;14477;51.038;4.588;2023-04-29T03:13:00;9.53;;;5.67;;
26908;SDS011;14477;51.038;4.588;2023-04-29T03:15:26;11.32;;;6.47;;
26908;SDS011;14477;51.038;4.588;2023-04-29T03:17:52;12.00;;;6.57;;
26908;SDS011;14477;51.038;4.588;2023-04-29T03:20:18;13.25;;;7.65;;
26908;SDS011;14477;51.038;4.588;2023-04-29T03:22:44;15.20;;;7.53;;
26908;SDS011;14477;51.038;4.588;2023-04-29T03:25:10;13.90;;;7.22;;
26908;SDS011;14477;51.038;4.588;2023-04-29T03:27:37;16.35;;;8.00;;
26908;SDS011;14477;51.038;4.588;2023-04-29T03:30:03;15.18;;;8.02;;
26908;SDS011;14477;51.038;4.588;2023-04-29T03:32:30;17.13;;;7.93;;
26908;SDS011;14477;51.038;4.588;2023-04-29T03:34:55;14.63;;;7.95;;
26908;SDS011;14477;51.038;4.588;2023-04-29T03:37:21;16.05;;;8.00;;
26908;SDS011;14477;51.038;4.588;2023-04-29T03:39:47;14.80;;;7.70;;
26908;SDS011;14477;51.038;4.588;2023-04-29T03:42:12;16.65;;;8.13;;
26908;SDS011;14477;51.038;4.588;2023-04-29T03:44:38;17.97;;;8.03;;
26908;SDS011;14477;51.038;4.588;2023-04-29T03:47:04;15.47;;;7.70;;
26908;SDS011;14477;51.038;4.588;2023-04-29T03:49:30;15.85;;;8.02;;
26908;SDS011;14477;51.038;4.588;2023-04-29T03:51:56;14.23;;;7.78;;
26908;SDS011;14477;51.038;4.588;2023-04-29T03:54:22;16.13;;;8.15;;
26908;SDS011;14477;51.038;4.588;2023-04-29T03:56:48;15.43;;;7.30;;
26908;SDS011;14477;51.038;4.588;2023-04-29T03:59:14;16.70;;;8.30;;
26908;SDS011;14477;51.038;4.588;2023-04-29T04:01:39;14.87;;;7.23;;
26908;SDS011;14477;51.038;4.588;2023-04-29T04:04:05;17.70;;;8.27;;
26908;SDS011;14477;51.038;4.588;2023-04-29T04:06:31;14.67;;;7.77;;
26908;SDS011;14477;51.038;4.588;2023-04-29T04:08:57;15.38;;;7.88;;
26908;SDS011;14477;51.038;4.588;2023-04-29T04:11:23;18.70;;;8.57;;
26908;SDS011;14477;51.038;4.588;2023-04-29T04:13:48;15.60;;;7.93;;
26908;SDS011;14477;51.038;4.588;2023-04-29T04:16:14;14.00;;;7.50;;
26908;SDS011;14477;51.038;4.588;2023-04-29T04:18:41;13.23;;;7.27;;
26908;SDS011;14477;51.038;4.588;2023-04-29T04:21:10;15.30;;;7.40;;
26908;SDS011;14477;51.038;4.588;2023-04-29T04:23:36;13.82;;;7.45;;
26908;SDS011;14477;51.038;4.588;2023-04-29T04:26:05;15.27;;;7.63;;
26908;SDS011;14477;51.038;4.588;2023-04-29T04:28:31;13.20;;;7.33;;
26908;SDS011;14477;51.038;4.588;2023-04-29T04:30:57;15.07;;;7.45;;
26908;SDS011;14477;51.038;4.588;2023-04-29T04:33:23;13.73;;;7.37;;
26908;SDS011;14477;51.038;4.588;2023-04-29T04:35:50;15.55;;;8.00;;
26908;SDS011;14477;51.038;4.588;2023-04-29T04:38:15;15.30;;;8.35;;
26908;SDS011;14477;51.038;4.588;2023-04-29T04:40:41;17.33;;;9.32;;
26908;SDS011;14477;51.038;4.588;2023-04-29T04:43:07;17.17;;;8.80;;
26908;SDS011;14477;51.038;4.588;2023-04-29T04:45:33;16.77;;;8.60;;
26908;SDS011;14477;51.038;4.588;2023-04-29T04:47:59;16.60;;;8.07;;
26908;SDS011;14477;51.038;4.588;2023-04-29T04:50:28;15.13;;;8.35;;
26908;SDS011;14477;51.038;4.588;2023-04-29T04:52:54;13.43;;;7.50;;
26908;SDS011;14477;51.038;4.588;2023-04-29T04:55:20;14.60;;;7.80;;
26908;SDS011;14477;51.038;4.588;2023-04-29T04:57:46;13.90;;;7.40;;
26908;SDS011;14477;51.038;4.588;2023-04-29T05:00:12;15.18;;;8.23;;
26908;SDS011;14477;51.038;4.588;2023-04-29T05:02:38;12.67;;;7.50;;
26908;SDS011;14477;51.038;4.588;2023-04-29T05:05:04;14.20;;;7.13;;
26908;SDS011;14477;51.038;4.588;2023-04-29T05:07:30;13.45;;;7.65;;
26908;SDS011;14477;51.038;4.588;2023-04-29T05:09:57;14.93;;;8.02;;
26908;SDS011;14477;51.038;4.588;2023-04-29T05:12:22;13.70;;;7.67;;
26908;SDS011;14477;51.038;4.588;2023-04-29T05:14:53;12.13;;;7.38;;
26908;SDS011;14477;51.038;4.588;2023-04-29T05:17:19;13.35;;;7.55;;
26908;SDS011;14477;51.038;4.588;2023-04-29T05:19:45;13.30;;;7.73;;
26908;SDS011;14477;51.038;4.588;2023-04-29T05:22:10;12.65;;;7.43;;
26908;SDS011;14477;51.038;4.588;2023-04-29T05:24:36;14.03;;;7.40;;
26908;SDS011;14477;51.038;4.588;2023-04-29T05:27:02;12.77;;;7.13;;
26908;SDS011;14477;51.038;4.588;2023-04-29T05:29:28;11.88;;;6.90;;
26908;SDS011;14477;51.038;4.588;2023-04-29T05:31:54;12.25;;;7.05;;
26908;SDS011;14477;51.038;4.588;2023-04-29T05:34:20;10.43;;;6.07;;
26908;SDS011;14477;51.038;4.588;2023-04-29T05:36:46;10.43;;;6.40;;
26908;SDS011;14477;51.038;4.588;2023-04-29T05:39:11;10.77;;;6.67;;
26908;SDS011;14477;51.038;4.588;2023-04-29T05:41:37;12.70;;;6.70;;
26908;SDS011;14477;51.038;4.588;2023-04-29T05:44:03;11.27;;;6.57;;
26908;SDS011;14477;51.038;4.588;2023-04-29T05:46:28;13.20;;;6.63;;
26908;SDS011;14477;51.038;4.588;2023-04-29T05:48:54;11.43;;;5.97;;
26908;SDS011;14477;51.038;4.588;2023-04-29T05:51:20;11.77;;;6.85;;
26908;SDS011;14477;51.038;4.588;2023-04-29T05:53:45;12.50;;;7.30;;
26908;SDS011;14477;51.038;4.588;2023-04-29T05:56:11;11.50;;;7.37;;
26908;SDS011;14477;51.038;4.588;2023-04-29T05:58:37;12.00;;;7.30;;
26908;SDS011;14477;51.038;4.588;2023-04-29T06:01:02;12.40;;;7.33;;
26908;SDS011;14477;51.038;4.588;2023-04-29T06:03:28;11.90;;;6.95;;
26908;SDS011;14477;51.038;4.588;2023-04-29T06:05:55;12.73;;;7.00;;
26908;SDS011;14477;51.038;4.588;2023-04-29T06:08:21;13.27;;;6.93;;
26908;SDS011;14477;51.038;4.588;2023-04-29T06:10:47;11.13;;;6.68;;
26908;SDS011;14477;51.038;4.588;2023-04-29T06:13:15;11.70;;;6.82;;
26908;SDS011;14477;51.038;4.588;2023-04-29T06:15:41;11.90;;;6.90;;
26908;SDS011;14477;51.038;4.588;2023-04-29T06:18:07;12.23;;;6.97;;
26908;SDS011;14477;51.038;4.588;2023-04-29T06:20:33;12.82;;;6.90;;
26908;SDS011;14477;51.038;4.588;2023-04-29T06:22:58;11.23;;;6.93;;
26908;SDS011;14477;51.038;4.588;2023-04-29T06:25:24;12.50;;;7.13;;
26908;SDS011;14477;51.038;4.588;2023-04-29T06:27:50;12.13;;;6.83;;
26908;SDS011;14477;51.038;4.588;2023-04-29T06:30:15;13.37;;;7.53;;
26908;SDS011;14477;51.038;4.588;2023-04-29T06:32:41;12.88;;;6.88;;
26908;SDS011;14477;51.038;4.588;2023-04-29T06:35:07;12.40;;;6.93;;
26908;SDS011;14477;51.038;4.588;2023-04-29T06:37:33;12.95;;;7.22;;
26908;SDS011;14477;51.038;4.588;2023-04-29T06:39:58;11.63;;;6.85;;
26908;SDS011;14477;51.038;4.588;2023-04-29T06:42:24;11.07;;;6.70;;
26908;SDS011;14477;51.038;4.588;2023-04-29T06:44:50;12.10;;;6.78;;
26908;SDS011;14477;51.038;4.588;2023-04-29T06:47:16;12.50;;;7.30;;
26908;SDS011;14477;51.038;4.588;2023-04-29T06:49:41;11.27;;;6.80;;
26908;SDS011;14477;51.038;4.588;2023-04-29T06:52:08;12.70;;;7.07;;
26908;SDS011;14477;51.038;4.588;2023-04-29T06:54:33;13.70;;;7.80;;
26908;SDS011;14477;51.038;4.588;2023-04-29T06:56:59;13.18;;;8.00;;
26908;SDS011;14477;51.038;4.588;2023-04-29T06:59:26;14.52;;;8.43;;
26908;SDS011;14477;51.038;4.588;2023-04-29T07:01:52;13.23;;;7.80;;
26908;SDS011;14477;51.038;4.588;2023-04-29T07:04:18;12.33;;;7.23;;
26908;SDS011;14477;51.038;4.588;2023-04-29T07:06:44;13.65;;;8.02;;
26908;SDS011;14477;51.038;4.588;2023-04-29T07:09:11;14.50;;;7.68;;
26908;SDS011;14477;51.038;4.588;2023-04-29T07:11:38;13.63;;;7.78;;
26908;SDS011;14477;51.038;4.588;2023-04-29T07:14:04;13.23;;;8.07;;
26908;SDS011;14477;51.038;4.588;2023-04-29T07:16:30;12.77;;;7.53;;
26908;SDS011;14477;51.038;4.588;2023-04-29T07:18:55;12.53;;;7.40;;
26908;SDS011;14477;51.038;4.588;2023-04-29T07:21:21;13.80;;;7.68;;
26908;SDS011;14477;51.038;4.588;2023-04-29T07:23:47;12.97;;;7.73;;
26908;SDS011;14477;51.038;4.588;2023-04-29T07:26:13;12.47;;;7.47;;
26908;SDS011;14477;51.038;4.588;2023-04-29T07:28:40;13.95;;;8.13;;
26908;SDS011;14477;51.038;4.588;2023-04-29T07:31:06;14.00;;;7.32;;
26908;SDS011;14477;51.038;4.588;2023-04-29T07:33:33;14.03;;;8.33;;
26908;SDS011;14477;51.038;4.588;2023-04-29T07:35:59;13.90;;;7.50;;
26908;SDS011;14477;51.038;4.588;2023-04-29T07:38:26;13.65;;;7.35;;
26908;SDS011;14477;51.038;4.588;2023-04-29T07:40:53;13.55;;;7.38;;
26908;SDS011;14477;51.038;4.588;2023-04-29T07:43:19;12.37;;;6.93;;
26908;SDS011;14477;51.038;4.588;2023-04-29T07:45:46;12.85;;;7.38;;
26908;SDS011;14477;51.038;4.588;2023-04-29T07:48:12;13.18;;;7.50;;
26908;SDS011;14477;51.038;4.588;2023-04-29T07:50:38;12.10;;;7.15;;
26908;SDS011;14477;51.038;4.588;2023-04-29T07:53:03;12.53;;;7.13;;
26908;SDS011;14477;51.038;4.588;2023-04-29T07:55:30;14.23;;;7.30;;
26908;SDS011;14477;51.038;4.588;2023-04-29T07:57:56;12.63;;;7.47;;
26908;SDS011;14477;51.038;4.588;2023-04-29T08:00:23;13.70;;;7.20;;
26908;SDS011;14477;51.038;4.588;2023-04-29T08:02:50;14.73;;;7.75;;
26908;SDS011;14477;51.038;4.588;2023-04-29T08:05:20;14.35;;;7.57;;
26908;SDS011;14477;51.038;4.588;2023-04-29T08:07:47;11.45;;;6.53;;
26908;SDS011;14477;51.038;4.588;2023-04-29T08:10:13;11.95;;;7.03;;
26908;SDS011;14477;51.038;4.588;2023-04-29T08:12:39;12.13;;;7.27;;
26908;SDS011;14477;51.038;4.588;2023-04-29T08:15:05;13.15;;;7.78;;
26908;SDS011;14477;51.038;4.588;2023-04-29T08:17:32;12.15;;;7.63;;
26908;SDS011;14477;51.038;4.588;2023-04-29T08:19:58;11.33;;;6.93;;
26908;SDS011;14477;51.038;4.588;2023-04-29T08:22:23;11.65;;;7.10;;
26908;SDS011;14477;51.038;4.588;2023-04-29T08:24:49;12.80;;;7.47;;
26908;SDS011;14477;51.038;4.588;2023-04-29T08:27:15;13.43;;;7.07;;
26908;SDS011;14477;51.038;4.588;2023-04-29T08:29:41;12.00;;;6.87;;
26908;SDS011;14477;51.038;4.588;2023-04-29T08:32:08;11.60;;;7.00;;
26908;SDS011;14477;51.038;4.588;2023-04-29T08:34:34;11.73;;;6.88;;
26908;SDS011;14477;51.038;4.588;2023-04-29T08:37:00;11.68;;;6.78;;
26908;SDS011;14477;51.038;4.588;2023-04-29T08:39:27;11.13;;;6.63;;
26908;SDS011;14477;51.038;4.588;2023-04-29T08:41:55;11.45;;;6.68;;
26908;SDS011;14477;51.038;4.588;2023-04-29T08:44:21;11.38;;;6.53;;
26908;SDS011;14477;51.038;4.588;2023-04-29T08:46:48;11.65;;;6.60;;
26908;SDS011;14477;51.038;4.588;2023-04-29T08:49:15;11.63;;;6.63;;
26908;SDS011;14477;51.038;4.588;2023-04-29T08:51:40;12.70;;;7.17;;
26908;SDS011;14477;51.038;4.588;2023-04-29T08:54:06;10.30;;;6.20;;
26908;SDS011;14477;51.038;4.588;2023-04-29T08:56:32;10.93;;;6.53;;
26908;SDS011;14477;51.038;4.588;2023-04-29T08:58:59;12.33;;;7.17;;
26908;SDS011;14477;51.038;4.588;2023-04-29T09:01:27;11.27;;;6.68;;
26908;SDS011;14477;51.038;4.588;2023-04-29T09:03:55;10.88;;;6.53;;
26908;SDS011;14477;51.038;4.588;2023-04-29T09:06:38;11.85;;;6.32;;
26908;SDS011;14477;51.038;4.588;2023-04-29T09:09:04;11.10;;;6.87;;
26908;SDS011;14477;51.038;4.588;2023-04-29T09:11:31;12.52;;;7.03;;
26908;SDS011;14477;51.038;4.588;2023-04-29T09:14:00;10.77;;;6.70;;
26908;SDS011;14477;51.038;4.588;2023-04-29T09:16:29;10.60;;;6.38;;
26908;SDS011;14477;51.038;4.588;2023-04-29T09:18:55;10.80;;;6.90;;
26908;SDS011;14477;51.038;4.588;2023-04-29T09:21:22;10.80;;;6.33;;
26908;SDS011;14477;51.038;4.588;2023-04-29T09:23:56;10.50;;;6.68;;
26908;SDS011;14477;51.038;4.588;2023-04-29T09:26:24;10.85;;;6.53;;
26908;SDS011;14477;51.038;4.588;2023-04-29T09:29:09;11.70;;;6.60;;
26908;SDS011;14477;51.038;4.588;2023-04-29T09:31:38;11.20;;;5.93;;
26908;SDS011;14477;51.038;4.588;2023-04-29T09:34:04;9.98;;;6.32;;
26908;SDS011;14477;51.038;4.588;2023-04-29T09:36:34;10.10;;;6.45;;
26908;SDS011;14477;51.038;4.588;2023-04-29T09:39:13;8.68;;;6.28;;
26908;SDS011;14477;51.038;4.588;2023-04-29T09:44:18;10.10;;;5.90;;
26908;SDS011;14477;51.038;4.588;2023-04-29T09:46:58;14.23;;;6.82;;
26908;SDS011;14477;51.038;4.588;2023-04-29T09:49:37;9.50;;;6.13;;
26908;SDS011;14477;51.038;4.588;2023-04-29T09:52:13;7.90;;;5.30;;
26908;SDS011;14477;51.038;4.588;2023-04-29T09:54:41;10.95;;;6.35;;
26908;SDS011;14477;51.038;4.588;2023-04-29T09:57:08;11.20;;;6.27;;
26908;SDS011;14477;51.038;4.588;2023-04-29T09:59:37;8.88;;;5.75;;
26908;SDS011;14477;51.038;4.588;2023-04-29T10:04:40;8.82;;;6.00;;
26908;SDS011;14477;51.038;4.588;2023-04-29T10:07:08;8.65;;;5.63;;
26908;SDS011;14477;51.038;4.588;2023-04-29T10:09:40;8.10;;;6.00;;
26908;SDS011;14477;51.038;4.588;2023-04-29T10:12:06;8.45;;;5.53;;
26908;SDS011;14477;51.038;4.588;2023-04-29T10:14:34;9.27;;;5.93;;
26908;SDS011;14477;51.038;4.588;2023-04-29T10:17:23;7.78;;;5.47;;
26908;SDS011;14477;51.038;4.588;2023-04-29T10:20:04;8.93;;;5.23;;
26908;SDS011;14477;51.038;4.588;2023-04-29T10:25:10;6.95;;;5.00;;
26908;SDS011;14477;51.038;4.588;2023-04-29T10:27:39;9.95;;;5.70;;
26908;SDS011;14477;51.038;4.588;2023-04-29T10:30:08;8.55;;;5.43;;
26908;SDS011;14477;51.038;4.588;2023-04-29T10:32:36;9.53;;;5.43;;
26908;SDS011;14477;51.038;4.588;2023-04-29T10:35:06;8.40;;;5.63;;
26908;SDS011;14477;51.038;4.588;2023-04-29T10:37:35;7.68;;;5.30;;
26908;SDS011;14477;51.038;4.588;2023-04-29T10:42:49;8.18;;;5.60;;
26908;SDS011;14477;51.038;4.588;2023-04-29T10:48:08;8.38;;;5.80;;
26908;SDS011;14477;51.038;4.588;2023-04-29T10:53:11;9.73;;;5.95;;
26908;SDS011;14477;51.038;4.588;2023-04-29T10:55:38;7.55;;;5.13;;
26908;SDS011;14477;51.038;4.588;2023-04-29T10:58:05;8.20;;;5.67;;
26908;SDS011;14477;51.038;4.588;2023-04-29T11:01:03;8.10;;;5.05;;
26908;SDS011;14477;51.038;4.588;2023-04-29T11:03:49;7.57;;;5.22;;
26908;SDS011;14477;51.038;4.588;2023-04-29T11:09:02;7.90;;;5.38;;
26908;SDS011;14477;51.038;4.588;2023-04-29T11:11:40;7.17;;;5.17;;
26908;SDS011;14477;51.038;4.588;2023-04-29T11:14:11;8.00;;;5.32;;
26908;SDS011;14477;51.038;4.588;2023-04-29T11:16:45;7.35;;;5.28;;
26908;SDS011;14477;51.038;4.588;2023-04-29T11:19:15;8.43;;;5.43;;
26908;SDS011;14477;51.038;4.588;2023-04-29T11:21:42;8.05;;;5.25;;
26908;SDS011;14477;51.038;4.588;2023-04-29T11:24:10;7.77;;;5.60;;
26908;SDS011;14477;51.038;4.588;2023-04-29T11:26:37;7.13;;;5.15;;
26908;SDS011;14477;51.038;4.588;2023-04-29T11:29:06;7.22;;;5.28;;
26908;SDS011;14477;51.038;4.588;2023-04-29T11:31:34;9.10;;;6.00;;
26908;SDS011;14477;51.038;4.588;2023-04-29T11:34:02;8.90;;;5.70;;
26908;SDS011;14477;51.038;4.588;2023-04-29T11:36:30;7.75;;;5.45;;
26908;SDS011;14477;51.038;4.588;2023-04-29T11:38:58;7.20;;;5.18;;
26908;SDS011;14477;51.038;4.588;2023-04-29T11:41:25;6.75;;;5.05;;
26908;SDS011;14477;51.038;4.588;2023-04-29T11:43:54;7.63;;;5.38;;
26908;SDS011;14477;51.038;4.588;2023-04-29T11:46:22;7.57;;;5.17;;
26908;SDS011;14477;51.038;4.588;2023-04-29T11:48:48;7.30;;;5.38;;
26908;SDS011;14477;51.038;4.588;2023-04-29T11:51:14;8.32;;;5.65;;
26908;SDS011;14477;51.038;4.588;2023-04-29T11:53:42;8.82;;;5.63;;
26908;SDS011;14477;51.038;4.588;2023-04-29T11:56:09;7.13;;;5.13;;
26908;SDS011;14477;51.038;4.588;2023-04-29T11:58:35;7.60;;;5.60;;
26908;SDS011;14477;51.038;4.588;2023-04-29T12:01:02;6.20;;;4.82;;
26908;SDS011;14477;51.038;4.588;2023-04-29T12:03:30;7.65;;;5.22;;
26908;SDS011;14477;51.038;4.588;2023-04-29T12:05:57;6.40;;;4.65;;
26908;SDS011;14477;51.038;4.588;2023-04-29T12:08:23;7.23;;;5.10;;
26908;SDS011;14477;51.038;4.588;2023-04-29T12:10:54;6.28;;;4.70;;
26908;SDS011;14477;51.038;4.588;2023-04-29T12:13:25;6.07;;;4.13;;
26908;SDS011;14477;51.038;4.588;2023-04-29T12:15:54;5.82;;;4.00;;
26908;SDS011;14477;51.038;4.588;2023-04-29T12:18:21;6.20;;;4.07;;
26908;SDS011;14477;51.038;4.588;2023-04-29T12:20:48;5.97;;;4.50;;
26908;SDS011;14477;51.038;4.588;2023-04-29T12:23:18;7.35;;;4.53;;
26908;SDS011;14477;51.038;4.588;2023-04-29T12:25:51;6.32;;;5.00;;
26908;SDS011;14477;51.038;4.588;2023-04-29T12:28:17;7.03;;;4.65;;
26908;SDS011;14477;51.038;4.588;2023-04-29T12:30:47;5.55;;;4.18;;
26908;SDS011;14477;51.038;4.588;2023-04-29T12:33:22;9.40;;;5.50;;
26908;SDS011;14477;51.038;4.588;2023-04-29T12:35:50;6.10;;;4.78;;
26908;SDS011;14477;51.038;4.588;2023-04-29T12:38:20;7.25;;;5.00;;
26908;SDS011;14477;51.038;4.588;2023-04-29T12:41:01;6.90;;;4.80;;
26908;SDS011;14477;51.038;4.588;2023-04-29T12:43:28;6.57;;;4.53;;
26908;SDS011;14477;51.038;4.588;2023-04-29T12:45:59;7.57;;;4.70;;
26908;SDS011;14477;51.038;4.588;2023-04-29T12:48:32;5.85;;;4.53;;
26908;SDS011;14477;51.038;4.588;2023-04-29T12:50:59;6.40;;;4.45;;
26908;SDS011;14477;51.038;4.588;2023-04-29T12:53:25;5.25;;;4.13;;
26908;SDS011;14477;51.038;4.588;2023-04-29T12:55:52;6.32;;;4.45;;
26908;SDS011;14477;51.038;4.588;2023-04-29T12:58:18;5.43;;;4.07;;
26908;SDS011;14477;51.038;4.588;2023-04-29T13:00:44;4.65;;;3.85;;
26908;SDS011;14477;51.038;4.588;2023-04-29T13:03:10;6.60;;;4.20;;
26908;SDS011;14477;51.038;4.588;2023-04-29T13:05:35;6.90;;;4.33;;
26908;SDS011;14477;51.038;4.588;2023-04-29T13:08:01;6.22;;;4.00;;
26908;SDS011;14477;51.038;4.588;2023-04-29T13:10:29;5.63;;;4.00;;
26908;SDS011;14477;51.038;4.588;2023-04-29T13:12:55;4.80;;;3.83;;
26908;SDS011;14477;51.038;4.588;2023-04-29T13:15:21;6.93;;;4.50;;
26908;SDS011;14477;51.038;4.588;2023-04-29T13:17:47;5.27;;;4.10;;
26908;SDS011;14477;51.038;4.588;2023-04-29T13:20:13;5.30;;;3.83;;
26908;SDS011;14477;51.038;4.588;2023-04-29T13:22:39;5.53;;;4.32;;
26908;SDS011;14477;51.038;4.588;2023-04-29T13:25:07;5.20;;;3.85;;
26908;SDS011;14477;51.038;4.588;2023-04-29T13:27:34;5.63;;;3.80;;
26908;SDS011;14477;51.038;4.588;2023-04-29T13:30:00;5.65;;;3.97;;
26908;SDS011;14477;51.038;4.588;2023-04-29T13:32:26;5.95;;;3.72;;
26908;SDS011;14477;51.038;4.588;2023-04-29T13:34:52;5.45;;;3.60;;
26908;SDS011;14477;51.038;4.588;2023-04-29T13:37:18;4.90;;;3.60;;
26908;SDS011;14477;51.038;4.588;2023-04-29T13:39:44;5.80;;;4.03;;
26908;SDS011;14477;51.038;4.588;2023-04-29T13:42:10;4.80;;;3.83;;
26908;SDS011;14477;51.038;4.588;2023-04-29T13:44:36;5.75;;;3.97;;
26908;SDS011;14477;51.038;4.588;2023-04-29T13:47:02;5.07;;;3.80;;
26908;SDS011;14477;51.038;4.588;2023-04-29T13:49:30;6.65;;;3.88;;
26908;SDS011;14477;51.038;4.588;2023-04-29T13:51:56;5.57;;;3.40;;
26908;SDS011;14477;51.038;4.588;2023-04-29T13:54:22;5.57;;;3.80;;
26908;SDS011;14477;51.038;4.588;2023-04-29T13:56:47;6.18;;;3.83;;
26908;SDS011;14477;51.038;4.588;2023-04-29T13:59:13;4.90;;;3.70;;
26908;SDS011;14477;51.038;4.588;2023-04-29T14:01:39;5.45;;;3.67;;
26908;SDS011;14477;51.038;4.588;2023-04-29T14:04:06;5.60;;;3.60;;
26908;SDS011;14477;51.038;4.588;2023-04-29T14:06:32;4.57;;;3.30;;
26908;SDS011;14477;51.038;4.588;2023-04-29T14:08:58;4.93;;;3.42;;
26908;SDS011;14477;51.038;4.588;2023-04-29T14:11:24;3.77;;;3.10;;
26908;SDS011;14477;51.038;4.588;2023-04-29T14:13:50;4.75;;;3.45;;
26908;SDS011;14477;51.038;4.588;2023-04-29T14:16:16;5.53;;;3.65;;
26908;SDS011;14477;51.038;4.588;2023-04-29T14:18:41;4.17;;;3.37;;
26908;SDS011;14477;51.038;4.588;2023-04-29T14:21:07;5.40;;;3.33;;
26908;SDS011;14477;51.038;4.588;2023-04-29T14:23:35;3.90;;;3.03;;
26908;SDS011;14477;51.038;4.588;2023-04-29T14:26:01;3.77;;;3.03;;
26908;SDS011;14477;51.038;4.588;2023-04-29T14:28:27;4.95;;;3.72;;
26908;SDS011;14477;51.038;4.588;2023-04-29T14:30:52;5.07;;;3.20;;
26908;SDS011;14477;51.038;4.588;2023-04-29T14:33:18;4.47;;;3.53;;
26908;SDS011;14477;51.038;4.588;2023-04-29T14:35:43;4.53;;;3.30;;
26908;SDS011;14477;51.038;4.588;2023-04-29T14:38:10;5.10;;;3.80;;
26908;SDS011;14477;51.038;4.588;2023-04-29T14:40:35;4.40;;;3.33;;
26908;SDS011;14477;51.038;4.588;2023-04-29T14:43:03;5.22;;;3.60;;
26908;SDS011;14477;51.038;4.588;2023-04-29T14:45:28;4.93;;;3.60;;
26908;SDS011;14477;51.038;4.588;2023-04-29T14:47:54;4.70;;;3.60;;
26908;SDS011;14477;51.038;4.588;2023-04-29T14:50:20;4.43;;;3.42;;
26908;SDS011;14477;51.038;4.588;2023-04-29T14:52:47;4.67;;;3.70;;
26908;SDS011;14477;51.038;4.588;2023-04-29T14:55:12;5.10;;;3.45;;
26908;SDS011;14477;51.038;4.588;2023-04-29T14:57:38;5.00;;;3.35;;
26908;SDS011;14477;51.038;4.588;2023-04-29T15:00:04;5.33;;;3.73;;
26908;SDS011;14477;51.038;4.588;2023-04-29T15:02:32;4.38;;;3.20;;
26908;SDS011;14477;51.038;4.588;2023-04-29T15:04:57;3.90;;;3.10;;